createdAt,value
2016-05-30T00:00:28.810Z,999.83
2016-05-30T00:01:28.797Z,999.86
2016-05-30T00:02:28.783Z,999.86
2016-05-30T00:03:28.771Z,999.8
2016-05-30T00:04:28.758Z,999.8
2016-05-30T00:05:28.745Z,999.84
2016-05-30T00:06:29.029Z,999.8
2016-05-30T00:07:28.719Z,999.79
2016-05-30T00:08:28.706Z,999.76
2016-05-30T00:09:28.693Z,999.7
2016-05-30T00:10:28.680Z,999.67
2016-05-30T00:11:28.683Z,999.63
2016-05-30T00:12:28.654Z,999.61
2016-05-30T00:13:28.641Z,999.55
2016-05-30T00:14:28.629Z,999.57
2016-05-30T00:15:28.615Z,999.59
2016-05-30T00:16:28.603Z,999.61
2016-05-30T00:17:28.590Z,999.6
2016-05-30T00:18:28.592Z,999.57
2016-05-30T00:19:28.564Z,999.61
2016-05-30T00:20:28.551Z,999.48
2016-05-30T00:21:28.537Z,999.49
2016-05-30T00:22:28.525Z,999.41
2016-05-30T00:23:28.512Z,999.35
2016-05-30T00:24:28.514Z,999.3
2016-05-30T00:25:28.486Z,999.25
2016-05-30T00:26:28.472Z,999.22
2016-05-30T00:27:28.460Z,999.17
2016-05-30T00:28:28.448Z,999.13
2016-05-30T00:29:28.434Z,999.09
2016-05-30T00:30:28.422Z,999.1
2016-05-30T00:31:28.408Z,999.08
2016-05-30T00:32:28.396Z,999.08
2016-05-30T00:33:28.382Z,999.09
2016-05-30T00:34:28.369Z,999.03
2016-05-30T00:35:28.357Z,999.03
2016-05-30T00:36:28.344Z,999.1
2016-05-30T00:37:28.331Z,999.08
2016-05-30T00:38:28.318Z,999.05
2016-05-30T00:39:28.304Z,999.14
2016-05-30T00:40:28.293Z,999.13
2016-05-30T00:41:28.296Z,999.16
2016-05-30T00:42:28.266Z,999.19
2016-05-30T00:43:28.254Z,999.16
2016-05-30T00:44:28.240Z,999.14
2016-05-30T00:45:28.227Z,999.13
2016-05-30T00:46:28.215Z,999.13
2016-05-30T00:47:28.202Z,999.12
2016-05-30T00:48:28.189Z,999.15
2016-05-30T00:49:28.176Z,999.13
2016-05-30T00:50:28.163Z,999.16
2016-05-30T00:51:28.150Z,999.14
2016-05-30T00:52:28.137Z,999.17
2016-05-30T00:53:28.108Z,999.15
2016-05-30T00:54:28.111Z,999.15
2016-05-30T00:55:28.098Z,999.15
2016-05-30T00:56:28.086Z,999.16
2016-05-30T00:57:28.056Z,999.11
2016-05-30T00:58:28.059Z,999.07
2016-05-30T00:59:28.031Z,999.05
2016-05-30T01:00:28.017Z,999.07
2016-05-30T01:01:28.005Z,999
2016-05-30T01:02:27.991Z,999.12
2016-05-30T01:03:27.979Z,999.12
2016-05-30T01:04:27.982Z,999.14
2016-05-30T01:05:27.953Z,999.17
2016-05-30T01:06:28.143Z,999.18
2016-05-30T01:07:27.927Z,999.19
2016-05-30T01:08:27.914Z,999.16
2016-05-30T01:09:27.901Z,999.18
2016-05-30T01:10:27.888Z,999.24
2016-05-30T01:11:27.875Z,999.27
2016-05-30T01:12:27.862Z,999.27
2016-05-30T01:13:27.849Z,999.33
2016-05-30T01:14:27.837Z,999.33
2016-05-30T01:15:27.823Z,999.34
2016-05-30T01:16:27.811Z,999.34
2016-05-30T01:17:27.798Z,999.31
2016-05-30T01:18:27.785Z,999.3
2016-05-30T01:19:27.772Z,999.26
2016-05-30T01:20:27.759Z,999.29
2016-05-30T01:21:27.746Z,999.33
2016-05-30T01:22:27.749Z,999.33
2016-05-30T01:23:27.720Z,999.45
2016-05-30T01:24:27.707Z,999.54
2016-05-30T01:25:27.695Z,999.56
2016-05-30T01:26:27.682Z,999.58
2016-05-30T01:27:27.669Z,999.59
2016-05-30T01:28:27.656Z,999.54
2016-05-30T01:29:27.642Z,999.53
2016-05-30T01:30:27.630Z,999.54
2016-05-30T01:31:27.617Z,999.5
2016-05-30T01:32:27.603Z,999.48
2016-05-30T01:33:27.606Z,999.52
2016-05-30T01:34:27.577Z,999.51
2016-05-30T01:35:27.566Z,999.54
2016-05-30T01:36:27.974Z,999.61
2016-05-30T01:37:27.555Z,999.62
2016-05-30T01:38:27.526Z,999.65
2016-05-30T01:39:27.513Z,999.66
2016-05-30T01:40:27.500Z,999.66
2016-05-30T01:41:27.488Z,999.68
2016-05-30T01:42:27.474Z,999.67
2016-05-30T01:43:27.462Z,999.61
2016-05-30T01:44:27.449Z,999.64
2016-05-30T01:45:27.435Z,999.61
2016-05-30T01:46:27.563Z,999.62
2016-05-30T01:47:27.409Z,999.56
2016-05-30T01:48:27.396Z,999.56
2016-05-30T01:49:27.384Z,999.52
2016-05-30T01:50:27.371Z,999.5
2016-05-30T01:51:27.358Z,999.42
2016-05-30T01:52:27.345Z,999.35
2016-05-30T01:53:27.332Z,999.31
2016-05-30T01:54:27.459Z,999.36
2016-05-30T01:55:27.306Z,999.36
2016-05-30T01:56:27.292Z,999.41
2016-05-30T01:57:27.280Z,999.39
2016-05-30T01:58:27.267Z,999.45
2016-05-30T01:59:27.255Z,999.35
2016-05-30T02:00:27.225Z,999.29
2016-05-30T02:01:27.229Z,999.26
2016-05-30T02:02:27.513Z,999.2
2016-05-30T02:03:27.202Z,999.15
2016-05-30T02:04:27.189Z,999.13
2016-05-30T02:05:27.177Z,999.13
2016-05-30T02:06:27.164Z,999.1
2016-05-30T02:07:27.152Z,999.09
2016-05-30T02:08:27.123Z,999.01
2016-05-30T02:09:27.124Z,999
2016-05-30T02:10:27.613Z,998.97
2016-05-30T02:11:27.083Z,998.9
2016-05-30T02:12:27.071Z,998.86
2016-05-30T02:13:27.058Z,998.81
2016-05-30T02:14:27.045Z,998.8
2016-05-30T02:15:27.048Z,998.82
2016-05-30T02:16:27.019Z,998.74
2016-05-30T02:17:27.007Z,998.83
2016-05-30T02:18:27.493Z,998.71
2016-05-30T02:19:26.980Z,998.72
2016-05-30T02:20:26.983Z,998.7
2016-05-30T02:21:26.954Z,998.65
2016-05-30T02:22:26.942Z,998.66
2016-05-30T02:23:26.928Z,998.66
2016-05-30T02:24:26.915Z,998.58
2016-05-30T02:25:26.903Z,998.6
2016-05-30T02:26:27.640Z,998.56
2016-05-30T02:27:26.876Z,998.53
2016-05-30T02:28:26.864Z,998.49
2016-05-30T02:29:26.851Z,998.51
2016-05-30T02:30:26.853Z,998.43
2016-05-30T02:31:26.825Z,998.48
2016-05-30T02:32:26.811Z,998.42
2016-05-30T02:33:26.800Z,998.41
2016-05-30T02:34:26.786Z,998.37
2016-05-30T02:35:26.773Z,998.41
2016-05-30T02:36:26.760Z,998.36
2016-05-30T02:37:26.747Z,998.37
2016-05-30T02:38:26.735Z,998.37
2016-05-30T02:39:26.734Z,998.37
2016-05-30T02:40:26.748Z,998.43
2016-05-30T02:41:26.762Z,998.39
2016-05-30T02:42:27.776Z,998.39
2016-05-30T02:43:26.790Z,998.37
2016-05-30T02:44:26.796Z,998.45
2016-05-30T02:45:26.793Z,998.45
2016-05-30T02:46:26.790Z,998.46
2016-05-30T02:47:26.786Z,998.5
2016-05-30T02:48:26.782Z,998.51
2016-05-30T02:49:26.777Z,998.47
2016-05-30T02:50:27.016Z,998.5
2016-05-30T02:51:26.757Z,998.45
2016-05-30T02:52:26.935Z,998.52
2016-05-30T02:53:26.738Z,998.55
2016-05-30T02:54:26.728Z,998.57
2016-05-30T02:55:26.716Z,998.56
2016-05-30T02:56:26.704Z,998.6
2016-05-30T02:57:26.693Z,998.64
2016-05-30T02:58:27.025Z,998.64
2016-05-30T02:59:26.668Z,998.64
2016-05-30T03:00:26.657Z,998.71
2016-05-30T03:01:26.645Z,998.64
2016-05-30T03:02:26.632Z,998.66
2016-05-30T03:03:26.620Z,998.59
2016-05-30T03:04:26.607Z,998.48
2016-05-30T03:05:26.595Z,998.45
2016-05-30T03:06:27.035Z,998.33
2016-05-30T03:07:26.772Z,998.26
2016-05-30T03:08:26.555Z,998.23
2016-05-30T03:09:26.543Z,998.16
2016-05-30T03:10:26.531Z,998.17
2016-05-30T03:11:26.517Z,998.19
2016-05-30T03:12:26.504Z,998.2
2016-05-30T03:13:26.491Z,998.25
2016-05-30T03:14:26.478Z,998.28
2016-05-30T03:15:26.450Z,998.36
2016-05-30T03:16:26.453Z,998.33
2016-05-30T03:17:26.439Z,998.33
2016-05-30T03:18:26.427Z,998.33
2016-05-30T03:19:26.413Z,998.3
2016-05-30T03:20:26.385Z,998.28
2016-05-30T03:21:26.372Z,998.29
2016-05-30T03:22:26.358Z,998.26
2016-05-30T03:23:26.361Z,998.23
2016-05-30T03:24:26.349Z,998.27
2016-05-30T03:25:26.336Z,998.27
2016-05-30T03:26:26.323Z,998.29
2016-05-30T03:27:26.309Z,998.29
2016-05-30T03:28:26.282Z,998.35
2016-05-30T03:29:26.268Z,998.27
2016-05-30T03:30:26.255Z,998.29
2016-05-30T03:31:26.257Z,998.27
2016-05-30T03:32:26.229Z,998.27
2016-05-30T03:33:26.232Z,998.26
2016-05-30T03:34:26.203Z,998.18
2016-05-30T03:35:26.190Z,998.16
2016-05-30T03:36:26.475Z,998.18
2016-05-30T03:37:26.181Z,998.11
2016-05-30T03:38:26.152Z,998.18
2016-05-30T03:39:26.140Z,998.1
2016-05-30T03:40:26.125Z,998.12
2016-05-30T03:41:26.114Z,998.1
2016-05-30T03:42:26.101Z,998.06
2016-05-30T03:43:26.087Z,998.05
2016-05-30T03:44:26.075Z,998.04
2016-05-30T03:45:26.062Z,998
2016-05-30T03:46:26.048Z,998.04
2016-05-30T03:47:26.036Z,998.02
2016-05-30T03:48:26.022Z,998.02
2016-05-30T03:49:26.010Z,997.96
2016-05-30T03:50:25.997Z,997.94
2016-05-30T03:51:26.469Z,997.96
2016-05-30T03:52:26.721Z,997.97
2016-05-30T03:53:25.958Z,997.94
2016-05-30T03:54:25.960Z,997.97
2016-05-30T03:55:25.932Z,997.95
2016-05-30T03:56:25.919Z,997.96
2016-05-30T03:57:25.907Z,997.94
2016-05-30T03:58:25.893Z,997.95
2016-05-30T03:59:25.880Z,997.9
2016-05-30T04:00:25.868Z,997.91
2016-05-30T04:01:25.854Z,997.89
2016-05-30T04:02:25.841Z,997.91
2016-05-30T04:03:25.843Z,997.94
2016-05-30T04:04:25.816Z,997.84
2016-05-30T04:05:25.803Z,997.81
2016-05-30T04:06:25.790Z,997.78
2016-05-30T04:07:25.776Z,997.77
2016-05-30T04:08:25.764Z,997.76
2016-05-30T04:09:25.751Z,997.75
2016-05-30T04:10:25.738Z,997.82
2016-05-30T04:11:25.726Z,997.78
2016-05-30T04:12:25.712Z,997.84
2016-05-30T04:13:25.699Z,997.9
2016-05-30T04:14:25.687Z,997.87
2016-05-30T04:15:25.673Z,997.85
2016-05-30T04:16:25.661Z,997.93
2016-05-30T04:17:25.648Z,997.96
2016-05-30T04:18:25.634Z,998
2016-05-30T04:19:25.622Z,997.97
2016-05-30T04:20:25.609Z,997.97
2016-05-30T04:21:26.330Z,997.97
2016-05-30T04:22:25.583Z,997.98
2016-05-30T04:23:25.570Z,997.97
2016-05-30T04:24:25.541Z,997.96
2016-05-30T04:25:25.544Z,997.95
2016-05-30T04:26:25.530Z,997.9
2016-05-30T04:27:25.518Z,997.91
2016-05-30T04:28:25.505Z,997.87
2016-05-30T04:29:25.492Z,997.88
2016-05-30T04:30:25.479Z,997.91
2016-05-30T04:31:25.466Z,997.96
2016-05-30T04:32:25.454Z,997.95
2016-05-30T04:33:25.440Z,997.99
2016-05-30T04:34:25.412Z,998.03
2016-05-30T04:35:25.398Z,998.09
2016-05-30T04:36:25.761Z,998.1
2016-05-30T04:37:25.390Z,998.15
2016-05-30T04:38:25.360Z,998.19
2016-05-30T04:39:25.362Z,998.15
2016-05-30T04:40:25.334Z,998.24
2016-05-30T04:41:25.321Z,998.25
2016-05-30T04:42:25.308Z,998.32
2016-05-30T04:43:25.296Z,998.32
2016-05-30T04:44:25.298Z,998.44
2016-05-30T04:45:25.269Z,998.43
2016-05-30T04:46:25.257Z,998.43
2016-05-30T04:47:25.244Z,998.43
2016-05-30T04:48:25.231Z,998.43
2016-05-30T04:49:25.218Z,998.42
2016-05-30T04:50:25.205Z,998.45
2016-05-30T04:51:25.208Z,998.43
2016-05-30T04:52:25.258Z,998.38
2016-05-30T04:53:25.166Z,998.4
2016-05-30T04:54:25.153Z,998.41
2016-05-30T04:55:25.141Z,998.42
2016-05-30T04:56:25.127Z,998.4
2016-05-30T04:57:25.114Z,998.36
2016-05-30T04:58:25.102Z,998.39
2016-05-30T04:59:25.088Z,998.39
2016-05-30T05:00:25.076Z,998.37
2016-05-30T05:01:25.063Z,998.41
2016-05-30T05:02:25.049Z,998.37
2016-05-30T05:03:25.052Z,998.4
2016-05-30T05:04:25.024Z,998.4
2016-05-30T05:05:25.010Z,998.36
2016-05-30T05:06:24.998Z,998.32
2016-05-30T05:07:25.079Z,998.28
2016-05-30T05:08:24.972Z,998.29
2016-05-30T05:09:24.959Z,998.21
2016-05-30T05:10:24.946Z,998.21
2016-05-30T05:11:24.933Z,998.17
2016-05-30T05:12:24.920Z,998.1
2016-05-30T05:13:24.907Z,998.09
2016-05-30T05:14:24.894Z,998.1
2016-05-30T05:15:24.881Z,998.09
2016-05-30T05:16:24.869Z,998.09
2016-05-30T05:17:24.856Z,998.09
2016-05-30T05:18:24.842Z,998.01
2016-05-30T05:19:24.830Z,998
2016-05-30T05:20:24.801Z,998.01
2016-05-30T05:21:24.804Z,997.99
2016-05-30T05:22:24.917Z,998.01
2016-05-30T05:23:24.778Z,997.94
2016-05-30T05:24:24.750Z,997.9
2016-05-30T05:25:24.752Z,997.88
2016-05-30T05:26:24.724Z,997.89
2016-05-30T05:27:24.711Z,997.89
2016-05-30T05:28:24.698Z,997.87
2016-05-30T05:29:24.685Z,997.89
2016-05-30T05:30:24.671Z,997.93
2016-05-30T05:31:24.660Z,997.96
2016-05-30T05:32:24.646Z,997.91
2016-05-30T05:33:24.633Z,997.97
2016-05-30T05:34:24.635Z,998
2016-05-30T05:35:24.607Z,998.03
2016-05-30T05:36:24.594Z,998
2016-05-30T05:37:24.596Z,997.94
2016-05-30T05:38:24.568Z,997.92
2016-05-30T05:39:24.556Z,997.88
2016-05-30T05:40:24.542Z,997.94
2016-05-30T05:41:24.530Z,997.9
2016-05-30T05:42:24.532Z,997.89
2016-05-30T05:43:24.504Z,997.87
2016-05-30T05:44:24.490Z,997.83
2016-05-30T05:45:24.478Z,997.82
2016-05-30T05:46:24.464Z,997.83
2016-05-30T05:47:24.453Z,997.78
2016-05-30T05:48:24.439Z,997.77
2016-05-30T05:49:24.426Z,997.81
2016-05-30T05:50:24.414Z,997.83
2016-05-30T05:51:24.400Z,997.83
2016-05-30T05:52:24.386Z,997.82
2016-05-30T05:53:24.374Z,997.85
2016-05-30T05:54:24.362Z,997.83
2016-05-30T05:55:24.349Z,997.87
2016-05-30T05:56:24.336Z,997.88
2016-05-30T05:57:24.322Z,997.9
2016-05-30T05:58:24.310Z,997.97
2016-05-30T05:59:24.297Z,997.95
2016-05-30T06:00:24.284Z,997.97
2016-05-30T06:01:24.271Z,997.96
2016-05-30T06:02:24.258Z,997.99
2016-05-30T06:03:24.246Z,997.99
2016-05-30T06:04:24.232Z,997.95
2016-05-30T06:05:24.219Z,998.03
2016-05-30T06:06:24.207Z,997.99
2016-05-30T06:07:24.224Z,997.98
2016-05-30T06:08:24.165Z,997.98
2016-05-30T06:09:24.152Z,997.95
2016-05-30T06:10:24.139Z,997.95
2016-05-30T06:11:24.126Z,997.94
2016-05-30T06:12:24.113Z,997.95
2016-05-30T06:13:24.100Z,997.99
2016-05-30T06:14:24.087Z,997.97
2016-05-30T06:15:24.074Z,998
2016-05-30T06:16:24.061Z,997.98
2016-05-30T06:17:24.048Z,998.03
2016-05-30T06:18:24.036Z,998.04
2016-05-30T06:19:24.022Z,998.06
2016-05-30T06:20:24.009Z,998.07
2016-05-30T06:21:23.997Z,998.11
2016-05-30T06:22:24.686Z,998.12
2016-05-30T06:23:23.970Z,998.12
2016-05-30T06:24:23.958Z,998.14
2016-05-30T06:25:23.991Z,998.15
2016-05-30T06:26:23.932Z,998.11
2016-05-30T06:27:23.919Z,998.1
2016-05-30T06:28:23.905Z,998.1
2016-05-30T06:29:23.893Z,998.15
2016-05-30T06:30:23.880Z,998.09
2016-05-30T06:31:23.866Z,998.08
2016-05-30T06:32:23.854Z,998.08
2016-05-30T06:33:23.982Z,998.11
2016-05-30T06:34:23.829Z,998.1
2016-05-30T06:35:23.816Z,998.1
2016-05-30T06:36:24.052Z,998.09
2016-05-30T06:37:23.790Z,998.05
2016-05-30T06:38:23.776Z,998.08
2016-05-30T06:39:23.763Z,998.04
2016-05-30T06:40:23.751Z,998.04
2016-05-30T06:41:24.128Z,998
2016-05-30T06:42:23.726Z,997.99
2016-05-30T06:43:23.712Z,998
2016-05-30T06:44:23.699Z,997.97
2016-05-30T06:45:23.670Z,997.99
2016-05-30T06:46:23.673Z,997.96
2016-05-30T06:47:23.645Z,997.97
2016-05-30T06:48:23.631Z,997.95
2016-05-30T06:49:24.026Z,997.94
2016-05-30T06:50:23.622Z,997.9
2016-05-30T06:51:23.811Z,997.95
2016-05-30T06:52:23.581Z,997.94
2016-05-30T06:53:23.567Z,997.91
2016-05-30T06:54:23.616Z,997.91
2016-05-30T06:55:23.542Z,997.89
2016-05-30T06:56:23.544Z,997.91
2016-05-30T06:57:24.078Z,997.91
2016-05-30T06:58:23.503Z,997.86
2016-05-30T06:59:23.489Z,997.81
2016-05-30T07:00:23.477Z,997.8
2016-05-30T07:01:23.463Z,997.78
2016-05-30T07:02:23.450Z,997.79
2016-05-30T07:03:23.438Z,997.8
2016-05-30T07:04:23.425Z,997.78
2016-05-30T07:05:24.006Z,997.78
2016-05-30T07:06:23.602Z,997.74
2016-05-30T07:07:23.386Z,997.74
2016-05-30T07:08:23.373Z,997.74
2016-05-30T07:09:23.360Z,997.8
2016-05-30T07:10:23.346Z,997.72
2016-05-30T07:11:23.335Z,997.78
2016-05-30T07:12:23.321Z,997.73
2016-05-30T07:13:23.308Z,997.77
2016-05-30T07:14:23.296Z,997.81
2016-05-30T07:15:23.282Z,997.78
2016-05-30T07:16:23.254Z,997.81
2016-05-30T07:17:23.241Z,997.79
2016-05-30T07:18:23.244Z,997.77
2016-05-30T07:19:23.215Z,997.78
2016-05-30T07:20:23.218Z,997.75
2016-05-30T07:21:23.314Z,997.78
2016-05-30T07:22:23.176Z,997.72
2016-05-30T07:23:23.164Z,997.75
2016-05-30T07:24:23.150Z,997.69
2016-05-30T07:25:23.137Z,997.73
2016-05-30T07:26:23.125Z,997.72
2016-05-30T07:27:23.112Z,997.69
2016-05-30T07:28:23.114Z,997.72
2016-05-30T07:29:23.289Z,997.67
2016-05-30T07:30:23.073Z,997.68
2016-05-30T07:31:23.060Z,997.7
2016-05-30T07:32:23.047Z,997.69
2016-05-30T07:33:23.033Z,997.69
2016-05-30T07:34:23.021Z,997.68
2016-05-30T07:35:23.008Z,997.74
2016-05-30T07:36:22.996Z,997.69
2016-05-30T07:37:23.279Z,997.7
2016-05-30T07:38:22.969Z,997.66
2016-05-30T07:39:22.956Z,997.71
2016-05-30T07:40:22.944Z,997.72
2016-05-30T07:41:22.930Z,997.72
2016-05-30T07:42:22.918Z,997.68
2016-05-30T07:43:22.904Z,997.61
2016-05-30T07:44:22.893Z,997.63
2016-05-30T07:45:24.223Z,997.6
2016-05-30T07:46:22.850Z,997.68
2016-05-30T07:47:22.853Z,997.64
2016-05-30T07:48:22.840Z,997.62
2016-05-30T07:49:22.812Z,997.69
2016-05-30T07:50:22.798Z,997.7
2016-05-30T07:51:22.801Z,997.73
2016-05-30T07:52:22.772Z,997.7
2016-05-30T07:53:22.759Z,997.69
2016-05-30T07:54:22.747Z,997.71
2016-05-30T07:55:22.734Z,997.68
2016-05-30T07:56:22.721Z,997.64
2016-05-30T07:57:22.708Z,997.63
2016-05-30T07:58:22.695Z,997.6
2016-05-30T07:59:22.682Z,997.56
2016-05-30T08:00:22.669Z,997.58
2016-05-30T08:01:22.656Z,997.62
2016-05-30T08:02:22.644Z,997.62
2016-05-30T08:03:22.630Z,997.61
2016-05-30T08:04:22.617Z,997.62
2016-05-30T08:05:22.589Z,997.63
2016-05-30T08:06:22.591Z,997.57
2016-05-30T08:07:22.563Z,997.54
2016-05-30T08:08:22.566Z,997.56
2016-05-30T08:09:22.538Z,997.54
2016-05-30T08:10:22.540Z,997.57
2016-05-30T08:11:22.511Z,997.55
2016-05-30T08:12:22.513Z,997.59
2016-05-30T08:13:22.485Z,997.62
2016-05-30T08:14:22.473Z,997.59
2016-05-30T08:15:22.476Z,997.58
2016-05-30T08:16:22.447Z,997.63
2016-05-30T08:17:22.434Z,997.62
2016-05-30T08:18:22.421Z,997.6
2016-05-30T08:19:22.407Z,997.6
2016-05-30T08:20:22.395Z,997.57
2016-05-30T08:21:22.382Z,997.55
2016-05-30T08:22:22.370Z,997.53
2016-05-30T08:23:22.357Z,997.49
2016-05-30T08:24:22.342Z,997.48
2016-05-30T08:25:22.330Z,997.5
2016-05-30T08:26:22.301Z,997.5
2016-05-30T08:27:22.289Z,997.46
2016-05-30T08:28:22.292Z,997.42
2016-05-30T08:29:22.263Z,997.36
2016-05-30T08:30:22.250Z,997.33
2016-05-30T08:31:22.236Z,997.31
2016-05-30T08:32:22.224Z,997.3
2016-05-30T08:33:22.211Z,997.3
2016-05-30T08:34:22.198Z,997.28
2016-05-30T08:35:22.185Z,997.31
2016-05-30T08:36:22.172Z,997.23
2016-05-30T08:37:22.160Z,997.26
2016-05-30T08:38:22.146Z,997.28
2016-05-30T08:39:22.133Z,997.27
2016-05-30T08:40:22.121Z,997.26
2016-05-30T08:41:22.108Z,997.19
2016-05-30T08:42:22.095Z,997.17
2016-05-30T08:43:22.081Z,997.23
2016-05-30T08:44:22.054Z,997.19
2016-05-30T08:45:22.071Z,997.2
2016-05-30T08:46:22.027Z,997.11
2016-05-30T08:47:22.029Z,997.16
2016-05-30T08:48:22.001Z,997.16
2016-05-30T08:49:21.988Z,997.17
2016-05-30T08:50:21.976Z,997.16
2016-05-30T08:51:21.963Z,997.14
2016-05-30T08:52:21.950Z,997.18
2016-05-30T08:53:21.952Z,997.16
2016-05-30T08:54:21.923Z,997.2
2016-05-30T08:55:21.911Z,997.28
2016-05-30T08:56:21.898Z,997.32
2016-05-30T08:57:21.885Z,997.35
2016-05-30T08:58:21.873Z,997.35
2016-05-30T08:59:21.859Z,997.33
2016-05-30T09:00:21.830Z,997.33
2016-05-30T09:01:21.833Z,997.36
2016-05-30T09:02:21.805Z,997.43
2016-05-30T09:03:21.792Z,997.56
2016-05-30T09:04:21.795Z,997.7
2016-05-30T09:05:21.766Z,997.73
2016-05-30T09:06:21.753Z,997.74
2016-05-30T09:07:21.740Z,997.7
2016-05-30T09:08:21.728Z,997.71
2016-05-30T09:09:21.714Z,997.63
2016-05-30T09:10:21.701Z,997.63
2016-05-30T09:11:21.688Z,997.57
2016-05-30T09:12:21.675Z,997.54
2016-05-30T09:13:21.663Z,997.51
2016-05-30T09:14:21.649Z,997.5
2016-05-30T09:15:21.652Z,997.53
2016-05-30T09:16:21.623Z,997.47
2016-05-30T09:17:21.610Z,997.5
2016-05-30T09:18:21.598Z,997.49
2016-05-30T09:19:21.585Z,997.51
2016-05-30T09:20:21.572Z,997.49
2016-05-30T09:21:21.559Z,997.43
2016-05-30T09:22:21.577Z,997.45
2016-05-30T09:23:21.517Z,997.46
2016-05-30T09:24:21.520Z,997.47
2016-05-30T09:25:21.492Z,997.43
2016-05-30T09:26:21.495Z,997.38
2016-05-30T09:27:21.465Z,997.34
2016-05-30T09:28:21.467Z,997.4
2016-05-30T09:29:21.440Z,997.37
2016-05-30T09:30:21.427Z,997.38
2016-05-30T09:31:21.414Z,997.46
2016-05-30T09:32:21.401Z,997.49
2016-05-30T09:33:21.389Z,997.49
2016-05-30T09:34:21.375Z,997.46
2016-05-30T09:35:21.362Z,997.44
2016-05-30T09:36:21.364Z,997.41
2016-05-30T09:37:21.337Z,997.45
2016-05-30T09:38:21.324Z,997.39
2016-05-30T09:39:21.310Z,997.39
2016-05-30T09:40:21.297Z,997.41
2016-05-30T09:41:21.285Z,997.39
2016-05-30T09:42:21.271Z,997.3
2016-05-30T09:43:21.259Z,997.41
2016-05-30T09:44:21.246Z,997.47
2016-05-30T09:45:21.232Z,997.46
2016-05-30T09:46:21.205Z,997.48
2016-05-30T09:47:21.191Z,997.46
2016-05-30T09:48:21.193Z,997.52
2016-05-30T09:49:21.166Z,997.46
2016-05-30T09:50:21.152Z,997.37
2016-05-30T09:51:21.140Z,997.29
2016-05-30T09:52:21.126Z,997.33
2016-05-30T09:53:21.129Z,997.28
2016-05-30T09:54:21.100Z,997.32
2016-05-30T09:55:21.087Z,997.29
2016-05-30T09:56:21.075Z,997.25
2016-05-30T09:57:21.062Z,997.26
2016-05-30T09:58:21.048Z,997.18
2016-05-30T09:59:21.036Z,997.06
2016-05-30T10:00:21.023Z,997.06
2016-05-30T10:01:21.011Z,997.06
2016-05-30T10:02:20.981Z,997.1
2016-05-30T10:03:20.969Z,997.09
2016-05-30T10:04:20.956Z,997.1
2016-05-30T10:05:20.959Z,997.08
2016-05-30T10:06:20.945Z,997.04
2016-05-30T10:07:20.917Z,997.07
2016-05-30T10:08:21.264Z,997.07
2016-05-30T10:09:20.892Z,997.05
2016-05-30T10:10:20.878Z,997
2016-05-30T10:11:20.866Z,996.94
2016-05-30T10:12:20.853Z,996.99
2016-05-30T10:13:20.839Z,996.95
2016-05-30T10:14:20.827Z,997
2016-05-30T10:15:20.814Z,997.06
2016-05-30T10:16:21.254Z,996.99
2016-05-30T10:17:20.788Z,996.99
2016-05-30T10:18:20.774Z,996.97
2016-05-30T10:19:20.762Z,996.96
2016-05-30T10:20:20.749Z,997
2016-05-30T10:21:20.735Z,996.93
2016-05-30T10:22:20.723Z,996.95
2016-05-30T10:23:20.710Z,996.95
2016-05-30T10:24:21.244Z,997
2016-05-30T10:25:20.684Z,996.95
2016-05-30T10:26:20.671Z,996.98
2016-05-30T10:27:20.659Z,996.96
2016-05-30T10:28:20.645Z,997
2016-05-30T10:29:20.632Z,997.05
2016-05-30T10:30:20.604Z,997.06
2016-05-30T10:31:20.591Z,997.04
2016-05-30T10:32:21.234Z,996.97
2016-05-30T10:33:20.565Z,997
2016-05-30T10:34:20.552Z,996.98
2016-05-30T10:35:20.555Z,996.99
2016-05-30T10:36:20.901Z,997
2016-05-30T10:37:20.529Z,997
2016-05-30T10:38:20.500Z,997.01
2016-05-30T10:39:20.488Z,997.01
2016-05-30T10:40:23.677Z,997.04
2016-05-30T10:41:20.462Z,997.04
2016-05-30T10:42:20.449Z,997.11
2016-05-30T10:43:20.436Z,997.09
2016-05-30T10:44:20.423Z,997.08
2016-05-30T10:45:20.410Z,997.05
2016-05-30T10:46:20.396Z,997.03
2016-05-30T10:47:20.385Z,997.02
2016-05-30T10:48:20.371Z,997.05
2016-05-30T10:49:20.357Z,996.99
2016-05-30T10:50:20.345Z,996.99
2016-05-30T10:51:20.333Z,997
2016-05-30T10:52:20.554Z,996.95
2016-05-30T10:53:20.307Z,996.96
2016-05-30T10:54:20.294Z,996.98
2016-05-30T10:55:20.281Z,996.87
2016-05-30T10:56:20.315Z,996.84
2016-05-30T10:57:20.255Z,996.83
2016-05-30T10:58:20.242Z,996.86
2016-05-30T10:59:20.229Z,996.79
2016-05-30T11:00:20.215Z,996.73
2016-05-30T11:01:20.203Z,996.75
2016-05-30T11:02:20.190Z,996.66
2016-05-30T11:03:20.177Z,996.64
2016-05-30T11:04:20.164Z,996.6
2016-05-30T11:05:20.151Z,996.63
2016-05-30T11:06:20.169Z,996.5
2016-05-30T11:07:20.109Z,996.54
2016-05-30T11:08:20.097Z,996.48
2016-05-30T11:09:20.099Z,996.49
2016-05-30T11:10:20.071Z,996.39
2016-05-30T11:11:20.058Z,996.39
2016-05-30T11:12:20.061Z,996.52
2016-05-30T11:13:20.032Z,996.6
2016-05-30T11:14:20.035Z,996.69
2016-05-30T11:15:20.006Z,996.75
2016-05-30T11:16:19.993Z,996.79
2016-05-30T11:17:19.980Z,996.8
2016-05-30T11:18:19.968Z,996.75
2016-05-30T11:19:19.955Z,996.79
2016-05-30T11:20:19.941Z,996.83
2016-05-30T11:21:20.272Z,996.92
2016-05-30T11:22:19.916Z,996.98
2016-05-30T11:23:19.903Z,997.04
2016-05-30T11:24:19.890Z,997.08
2016-05-30T11:25:19.877Z,997.1
2016-05-30T11:26:19.864Z,997.09
2016-05-30T11:27:19.851Z,997.03
2016-05-30T11:28:19.853Z,997.03
2016-05-30T11:29:19.826Z,997
2016-05-30T11:30:19.828Z,996.98
2016-05-30T11:31:19.799Z,996.94
2016-05-30T11:32:19.786Z,996.91
2016-05-30T11:33:19.773Z,996.97
2016-05-30T11:34:19.761Z,996.98
2016-05-30T11:35:19.748Z,996.99
2016-05-30T11:36:19.734Z,996.97
2016-05-30T11:37:19.878Z,997.01
2016-05-30T11:38:19.708Z,997.03
2016-05-30T11:39:19.696Z,996.99
2016-05-30T11:40:19.683Z,997.01
2016-05-30T11:41:19.669Z,996.99
2016-05-30T11:42:19.657Z,996.95
2016-05-30T11:43:19.644Z,996.98
2016-05-30T11:44:19.631Z,997.08
2016-05-30T11:45:19.617Z,997.01
2016-05-30T11:46:19.641Z,997
2016-05-30T11:47:19.648Z,997
2016-05-30T11:48:19.656Z,996.99
2016-05-30T11:49:19.662Z,997
2016-05-30T11:50:19.661Z,996.98
2016-05-30T11:51:19.655Z,997.01
2016-05-30T11:52:20.415Z,996.99
2016-05-30T11:53:19.628Z,996.98
2016-05-30T11:54:19.654Z,996.99
2016-05-30T11:55:19.628Z,996.97
2016-05-30T11:56:19.712Z,996.98
2016-05-30T11:57:19.593Z,996.96
2016-05-30T11:58:19.598Z,996.94
2016-05-30T11:59:19.588Z,996.95
2016-05-30T12:00:19.576Z,996.94
2016-05-30T12:01:19.549Z,996.87
2016-05-30T12:02:19.537Z,996.93
2016-05-30T12:03:19.541Z,996.95
2016-05-30T12:04:19.513Z,996.92
2016-05-30T12:05:19.502Z,996.9
2016-05-30T12:06:19.489Z,996.88
2016-05-30T12:07:19.867Z,996.88
2016-05-30T12:08:19.464Z,996.88
2016-05-30T12:09:19.451Z,996.84
2016-05-30T12:10:19.438Z,996.84
2016-05-30T12:11:19.426Z,996.83
2016-05-30T12:12:19.412Z,996.86
2016-05-30T12:13:19.400Z,996.79
2016-05-30T12:14:19.386Z,996.8
2016-05-30T12:15:19.670Z,996.75
2016-05-30T12:16:19.376Z,996.78
2016-05-30T12:17:19.364Z,996.74
2016-05-30T12:18:19.335Z,996.71
2016-05-30T12:19:19.322Z,996.71
2016-05-30T12:20:19.309Z,996.74
2016-05-30T12:21:19.297Z,996.77
2016-05-30T12:22:19.283Z,996.73
2016-05-30T12:23:19.677Z,996.73
2016-05-30T12:24:19.258Z,996.71
2016-05-30T12:25:19.244Z,996.74
2016-05-30T12:26:19.247Z,996.76
2016-05-30T12:27:19.219Z,996.73
2016-05-30T12:28:19.205Z,996.75
2016-05-30T12:29:19.208Z,996.73
2016-05-30T12:30:19.180Z,996.76
2016-05-30T12:31:19.714Z,996.79
2016-05-30T12:32:19.154Z,996.75